Main page
METAR-TAF:

METAR-TAF

Airports :

King Abdulaziz Air Base

Dhahran, Saudi Arabia

latitude: 26-16N, longitude: 050-09E, elevation: 26 m

Current weather observation

The report was made 1 hour and 10 minutes ago, at 18:00 UTC
Wind 7 kt from the North/Northwest
Temperature 14°C
Humidity 47%
Pressure 1019 hPa
Visibility: 6000 m
Clear sky

METAR: OEDR 181800Z 33007KT 6000 SKC 14/03 Q1019 NOSIG

Time: 22:10 (19:10 UTC)

Forecast

The report was made 3 hours and 10 minutes ago, at 16:00 UTC
Forecast valid from 18 at 18 UTC to 19 at 24 UTC
Wind 10 kt from the West/Northwest
Visibility: 8000 m

TAF: OEDR 181600Z 1818/1924 30010KT 8000 NSC

Weather observations and forecasts of more than 4000 airports (METAR and TAF reports).

The available stations are represented by yellow and red dots on the map.

Hover mouse over dot to see the name of the station.

Then click to see weather observations and forecasts.

To change the map : click on the green buttons with a black cross to zoom in, on the green button with a dash to zoom out, or on the green arrows for adjacent maps.


METAR-TAF: